Time;durP1;ratioP1;P1;durP2;ratioP2;P2;SDS_P1;SDS_P2;PMS_P1;PMS_P2;Temp;Humidity;BMP_temperature;BMP_pressure;BME280_temperature;BME280_humidity;BME280_pressure;Samples;Min_cycle;Max_cycle;Signal;HPM_P1;HPM_P2
2021/06/01 00:01:12;;;;;;;4.03;2.33;;;;;;;15.45;43.50;101213.81;5062291;28;20032;-49
2021/06/01 00:03:38;;;;;;;4.30;2.40;;;;;;;15.25;46.60;101212.38;5082817;28;20039;-50
2021/06/01 00:06:04;;;;;;;5.20;2.50;;;;;;;15.26;46.12;101214.13;5044247;28;20040;-48
2021/06/01 00:08:29;;;;;;;3.45;2.28;;;;;;;15.23;45.58;101214.16;5080488;28;20036;-49
2021/06/01 00:10:55;;;;;;;4.05;2.25;;;;;;;15.25;44.54;101207.09;5084711;28;20096;-48
2021/06/01 00:13:21;;;;;;;5.15;2.55;;;;;;;15.32;44.93;101207.88;5061440;28;20530;-48
2021/06/01 00:15:47;;;;;;;7.30;2.50;;;;;;;15.03;47.78;101206.56;5080367;28;20048;-48
2021/06/01 00:18:13;;;;;;;4.55;2.50;;;;;;;15.08;46.70;101209.13;5070815;28;20336;-50
2021/06/01 00:20:38;;;;;;;4.65;2.35;;;;;;;15.10;44.84;101209.97;5087140;28;20264;-50
2021/06/01 00:23:04;;;;;;;4.00;2.30;;;;;;;15.12;44.65;101205.56;5063034;28;20489;-48
2021/06/01 00:25:30;;;;;;;3.90;2.30;;;;;;;15.18;44.24;101209.88;5084833;28;20040;-50
2021/06/01 00:27:55;;;;;;;3.95;2.45;;;;;;;15.20;43.45;101208.91;5087976;28;20047;-51
2021/06/01 00:30:21;;;;;;;3.92;2.20;;;;;;;15.19;44.16;101206.31;5065313;28;20043;-50
2021/06/01 00:32:47;;;;;;;3.35;2.13;;;;;;;15.14;44.84;101202.00;5085841;28;20044;-49
2021/06/01 00:35:13;;;;;;;4.38;2.30;;;;;;;15.14;44.44;101203.75;5087274;28;20042;-49
2021/06/01 00:37:39;;;;;;;3.42;2.22;;;;;;;15.18;44.82;101204.59;5066501;28;20027;-50
2021/06/01 00:40:08;;;;;;;4.65;2.50;;;;;;;15.03;46.88;101203.06;5067880;28;20724;-49
2021/06/01 00:42:33;;;;;;;5.30;2.50;;;;;;;14.97;46.02;101212.78;5079717;28;20518;-49
2021/06/01 00:44:59;;;;;;;3.80;2.30;;;;;;;14.80;46.43;101218.28;5084119;28;20112;-51
2021/06/01 00:47:25;;;;;;;5.15;2.35;;;;;;;15.06;45.08;101221.44;5082631;28;20046;-49
2021/06/01 00:49:50;;;;;;;5.88;2.30;;;;;;;15.10;45.19;101224.00;5086545;28;20048;-49
2021/06/01 00:52:16;;;;;;;4.28;2.45;;;;;;;15.03;44.75;101217.09;5068230;28;20560;-49
2021/06/01 00:54:42;;;;;;;6.63;2.70;;;;;;;14.96;45.85;101218.94;5081622;28;20039;-50
2021/06/01 00:57:07;;;;;;;5.00;2.30;;;;;;;14.85;46.03;101218.22;5084981;28;20044;-49
2021/06/01 00:59:33;;;;;;;4.07;2.42;;;;;;;14.71;46.27;101217.53;5084026;28;20036;-47
2021/06/01 01:02:01;;;;;;;5.68;2.50;;;;;;;14.93;45.44;101220.75;5084115;28;20063;-47
2021/06/01 01:04:27;;;;;;;5.18;2.72;;;;;;;15.00;44.90;101213.63;5071608;28;20036;-48
2021/06/01 01:07:13;;;;;;;5.43;2.78;;;;;;;14.99;44.98;101210.13;5083288;28;20489;-51
2021/06/01 01:09:42;;;;;;;4.03;2.47;;;;;;;14.73;47.40;101214.00;5083797;28;20274;-48
2021/06/01 01:12:23;;;;;;;5.03;2.80;;;;;;;14.76;47.56;101202.53;5062374;28;20048;-48
2021/06/01 01:14:52;;;;;;;3.47;2.30;;;;;;;14.97;44.40;101207.50;5080915;28;20055;-48
2021/06/01 01:17:21;;;;;;;3.92;2.83;;;;;;;14.85;45.04;101199.78;5084139;28;20071;-50
2021/06/01 01:20:08;;;;;;;4.57;2.70;;;;;;;14.73;47.47;101200.84;5083056;28;20549;-49
2021/06/01 01:22:36;;;;;;;3.90;2.60;;;;;;;14.62;47.65;101202.69;5082413;28;20227;-50
2021/06/01 01:25:05;;;;;;;3.97;2.45;;;;;;;14.36;48.02;101200.38;5087119;28;20044;-48
2021/06/01 01:28:04;;;;;;;3.90;2.38;;;;;;;14.58;46.72;101199.25;5056385;28;20047;-47
2021/06/01 01:30:35;;;;;;;4.72;2.55;;;;;;;14.49;49.13;101204.59;5082913;28;20031;-47
2021/06/01 01:33:21;;;;;;;4.50;2.50;;;;;;;14.23;48.49;101197.03;5079675;28;20044;-49
2021/06/01 01:35:52;;;;;;;4.20;2.70;;;;;;;14.50;47.17;101201.09;5083175;28;20047;-47
2021/06/01 01:38:20;;;;;;;4.45;2.72;;;;;;;14.44;49.59;101199.41;5049002;28;20484;-47
2021/06/01 01:40:47;;;;;;;4.47;2.40;;;;;;;14.31;49.38;101200.44;5084649;28;20039;-50
2021/06/01 01:43:17;;;;;;;4.90;2.60;;;;;;;14.16;49.29;101198.00;5082461;28;20036;-46
2021/06/01 01:45:48;;;;;;;4.40;2.80;;;;;;;14.10;50.22;101193.69;5085926;28;20109;-47
2021/06/01 01:51:13;;;;;;;4.88;2.63;;;;;;;14.20;47.87;101184.78;5081559;28;20028;-49
2021/06/01 01:53:56;;;;;;;4.55;2.50;;;;;;;14.12;50.37;101184.00;5078976;28;20454;-51
2021/06/01 01:56:27;;;;;;;4.55;2.60;;;;;;;13.96;49.13;101184.16;5088323;28;20503;-47
2021/06/01 01:58:53;;;;;;;4.68;2.60;;;;;;;14.03;49.85;101187.59;5086168;28;20741;-49
2021/06/01 02:01:20;;;;;;;4.07;2.50;;;;;;;13.96;48.97;101184.16;5081542;28;20140;-50
2021/06/01 02:03:46;;;;;;;4.65;2.50;;;;;;;13.91;50.83;101190.38;5067611;28;20050;-48
2021/06/01 02:06:12;;;;;;;4.10;2.47;;;;;;;13.80;51.39;101187.84;5081246;28;20043;-49
2021/06/01 02:08:41;;;;;;;3.63;2.35;;;;;;;13.90;50.28;101188.63;5076673;28;20377;-50
2021/06/01 02:11:07;;;;;;;4.70;2.38;;;;;;;13.72;50.38;101192.28;5083185;28;20032;-50
2021/06/01 02:13:51;;;;;;;5.30;2.50;;;;;;;13.70;50.63;101189.69;5084945;28;20035;-50
2021/06/01 02:16:17;;;;;;;4.55;2.65;;;;;;;13.76;52.38;101191.38;5080407;28;20123;-51
2021/06/01 02:18:47;;;;;;;3.78;2.33;;;;;;;13.68;51.00;101188.84;5081994;28;20036;-48
2021/06/01 02:21:22;;;;;;;4.80;2.58;;;;;;;13.63;50.95;101186.22;5085044;28;20271;-48
2021/06/01 02:23:59;;;;;;;3.50;2.33;;;;;;;13.63;51.33;101186.22;5079732;28;20047;-47
2021/06/01 02:26:56;;;;;;;4.65;2.45;;;;;;;13.67;49.34;101187.09;5081757;28;20489;-48
2021/06/01 02:29:33;;;;;;;4.03;2.58;;;;;;;13.61;51.29;101182.75;5054449;28;20040;-48
2021/06/01 02:32:01;;;;;;;4.47;3.03;;;;;;;13.56;51.70;101187.19;5083675;28;20036;-47
2021/06/01 02:34:28;;;;;;;3.78;2.17;;;;;;;13.51;52.02;101182.84;5080523;28;20046;-48
2021/06/01 02:36:55;;;;;;;4.57;2.80;;;;;;;13.37;50.51;101191.72;5079064;28;20593;-47
2021/06/01 02:39:22;;;;;;;3.83;2.50;;;;;;;13.41;51.75;101184.69;5079636;28;20392;-48
2021/06/01 02:41:49;;;;;;;6.63;2.88;;;;;;;13.40;51.86;101190.81;5083677;28;20508;-49
2021/06/01 02:44:15;;;;;;;4.53;2.72;;;;;;;13.42;51.95;101194.31;5075284;28;20064;-49
2021/06/01 02:46:42;;;;;;;4.65;2.53;;;;;;;13.51;51.73;101186.34;5085326;28;20035;-48
2021/06/01 02:49:09;;;;;;;5.40;2.40;;;;;;;13.53;51.86;101188.97;5084690;28;20451;-50
2021/06/01 02:51:37;;;;;;;4.15;2.70;;;;;;;13.58;51.67;101182.81;5080839;28;20043;-47
2021/06/01 02:54:05;;;;;;;4.17;2.57;;;;;;;13.48;52.45;101201.28;5071633;28;20537;-47
2021/06/01 02:56:31;;;;;;;4.07;2.65;;;;;;;13.33;53.20;101191.72;5048686;28;20070;-50
2021/06/01 02:58:57;;;;;;;4.78;2.60;;;;;;;13.17;52.10;101196.22;5082525;28;20495;-47
2021/06/01 03:01:25;;;;;;;3.88;2.53;;;;;;;13.36;52.58;101191.72;5041614;28;20056;-49
2021/06/01 03:03:54;;;;;;;4.55;2.75;;;;;;;13.35;52.62;101195.22;5060172;28;20041;-47
2021/06/01 03:06:21;;;;;;;5.45;3.15;;;;;;;13.24;53.73;101192.69;5071593;28;20033;-50
2021/06/01 03:08:48;;;;;;;4.45;2.80;;;;;;;13.09;52.54;101193.66;5078148;28;20093;-49
2021/06/01 03:11:17;;;;;;;4.13;2.60;;;;;;;13.10;53.35;101190.16;5065991;28;20408;-48
2021/06/01 03:13:48;;;;;;;5.65;2.75;;;;;;;13.17;53.47;101189.22;5085464;28;20051;-52
2021/06/01 03:16:14;;;;;;;4.85;2.50;;;;;;;13.08;53.09;101186.66;5078557;28;20039;-52
2021/06/01 03:18:41;;;;;;;4.50;2.65;;;;;;;13.14;53.32;101189.25;5066544;28;20056;-48
2021/06/01 03:21:07;;;;;;;4.85;2.60;;;;;;;13.11;52.80;101189.25;5063026;28;20390;-47
2021/06/01 03:23:33;;;;;;;6.38;4.13;;;;;;;13.11;53.13;101191.88;5059360;28;20048;-46
2021/06/01 03:25:59;;;;;;;4.72;2.63;;;;;;;13.04;54.68;101196.31;5049883;28;20028;-49
2021/06/01 03:28:26;;;;;;;4.78;2.92;;;;;;;13.05;54.41;101189.28;5058762;28;20698;-48
2021/06/01 03:30:52;;;;;;;5.57;2.72;;;;;;;13.06;54.81;101184.03;5049233;28;20058;-49
2021/06/01 03:33:19;;;;;;;4.38;2.63;;;;;;;12.87;55.53;101188.53;5069459;28;20052;-50
2021/06/01 03:35:45;;;;;;;4.47;2.85;;;;;;;12.83;54.57;101185.94;5080151;28;20079;-49
2021/06/01 03:38:11;;;;;;;4.55;2.80;;;;;;;12.85;55.27;101190.28;5085223;28;20276;-51
2021/06/01 03:40:37;;;;;;;4.30;2.80;;;;;;;12.92;53.83;101183.25;5058697;28;20504;-47
2021/06/01 03:43:03;;;;;;;4.53;2.75;;;;;;;12.85;55.42;101189.41;5045460;28;20131;-47
2021/06/01 03:45:30;;;;;;;5.95;2.83;;;;;;;12.67;57.39;101190.38;5054206;28;20070;-51
2021/06/01 03:47:56;;;;;;;4.72;2.40;;;;;;;12.70;55.22;101195.63;5072125;27;20512;-49
2021/06/01 03:50:22;;;;;;;4.43;2.70;;;;;;;12.76;55.25;101196.44;5060415;28;20047;-48
2021/06/01 03:52:49;;;;;;;4.43;2.70;;;;;;;12.94;52.79;101182.38;5086043;28;20419;-49
2021/06/01 03:55:15;;;;;;;5.15;2.97;;;;;;;12.81;54.44;101192.94;5059926;28;20044;-47
2021/06/01 03:57:43;;;;;;;5.70;2.72;;;;;;;12.84;55.92;101188.53;5070179;28;20563;-48
2021/06/01 04:00:10;;;;;;;4.23;2.60;;;;;;;12.73;54.21;101185.13;5078169;28;20045;-48
2021/06/01 04:02:40;;;;;;;4.78;2.72;;;;;;;12.75;55.38;101186.84;5073900;28;20716;-47
2021/06/01 04:05:07;;;;;;;4.45;2.95;;;;;;;12.74;54.71;101190.34;5070491;28;20127;-48
2021/06/01 04:07:33;;;;;;;5.05;3.15;;;;;;;12.58;56.81;101181.66;5050730;28;20112;-49
2021/06/01 04:09:59;;;;;;;4.22;2.60;;;;;;;12.61;57.55;101180.78;5059083;28;20484;-48
2021/06/01 04:12:25;;;;;;;4.47;2.78;;;;;;;12.52;55.45;101186.97;5073279;28;20040;-48
2021/06/01 04:14:51;;;;;;;4.78;3.15;;;;;;;12.44;57.24;101188.75;5061110;28;20060;-47
2021/06/01 04:17:19;;;;;;;5.03;2.90;;;;;;;12.39;55.88;101190.50;5074135;28;20036;-49
2021/06/01 04:19:44;;;;;;;4.00;2.70;;;;;;;12.43;56.32;101192.22;5075828;28;20113;-49
2021/06/01 04:22:10;;;;;;;5.63;2.95;;;;;;;12.52;56.66;101196.59;5081709;28;20113;-47
2021/06/01 04:24:36;;;;;;;4.57;2.85;;;;;;;12.58;57.87;101201.78;5074870;28;20127;-49
2021/06/01 04:27:02;;;;;;;5.88;3.40;;;;;;;12.52;57.80;101197.44;5077460;28;20040;-50
2021/06/01 04:29:28;;;;;;;4.65;2.90;;;;;;;12.67;57.24;101193.00;5078107;28;20381;-49
2021/06/01 04:31:54;;;;;;;5.20;3.13;;;;;;;12.54;57.85;101200.91;5075648;28;20040;-50
2021/06/01 04:34:21;;;;;;;4.18;2.80;;;;;;;12.44;59.05;101194.84;5044382;28;20036;-49
2021/06/01 04:36:46;;;;;;;4.63;3.10;;;;;;;12.44;57.36;101202.72;5057883;28;20455;-47
2021/06/01 04:39:12;;;;;;;5.30;3.03;;;;;;;12.60;57.70;101200.91;5059866;28;20035;-48
2021/06/01 04:41:38;;;;;;;6.82;3.28;;;;;;;12.46;59.96;101196.59;5062336;28;20116;-47
2021/06/01 04:44:05;;;;;;;4.40;3.00;;;;;;;12.44;57.63;101194.84;5057508;28;20107;-49
2021/06/01 04:46:32;;;;;;;4.47;2.80;;;;;;;12.50;57.20;101199.22;5072392;28;20613;-48
2021/06/01 04:48:57;;;;;;;4.88;3.15;;;;;;;12.57;57.17;101194.78;5063505;28;20718;-50
2021/06/01 04:51:23;;;;;;;4.82;2.85;;;;;;;12.60;56.18;101190.41;5066858;28;20043;-48
2021/06/01 04:53:54;;;;;;;4.63;2.92;;;;;;;12.65;55.88;101197.41;5075689;28;20505;-48
2021/06/01 04:56:21;;;;;;;5.25;3.00;;;;;;;12.69;55.47;101199.97;5059226;28;20028;-48
2021/06/01 04:58:47;;;;;;;4.88;2.97;;;;;;;12.74;55.22;101203.47;5076564;28;20058;-49
2021/06/01 05:01:13;;;;;;;5.93;2.88;;;;;;;12.78;55.35;101194.69;5075440;28;20028;-49
2021/06/01 05:03:40;;;;;;;5.75;2.90;;;;;;;12.80;55.64;101201.69;5076498;28;20036;-48
2021/06/01 05:06:06;;;;;;;4.43;3.08;;;;;;;12.85;55.44;101206.03;5079991;28;20047;-48
2021/06/01 05:08:33;;;;;;;6.60;3.15;;;;;;;12.82;56.79;101200.81;5083257;28;20048;-48
2021/06/01 05:10:59;;;;;;;4.80;2.92;;;;;;;12.84;56.17;101206.91;5054343;28;20494;-48
2021/06/01 05:13:24;;;;;;;5.90;2.88;;;;;;;12.88;55.54;101206.00;5077646;28;20115;-49
2021/06/01 05:15:51;;;;;;;5.38;2.90;;;;;;;13.03;55.89;101202.44;5080701;28;20573;-48
2021/06/01 05:18:17;;;;;;;5.30;3.05;;;;;;;13.08;55.13;101205.03;5067286;28;20045;-50
2021/06/01 05:20:43;;;;;;;4.82;3.05;;;;;;;13.05;55.68;101197.16;5066717;28;20043;-49
2021/06/01 05:23:09;;;;;;;5.85;3.08;;;;;;;13.06;56.80;101201.56;5078760;28;20074;-49
2021/06/01 05:25:36;;;;;;;5.80;3.25;;;;;;;13.04;57.24;101198.03;5055480;28;20231;-48
2021/06/01 05:28:02;;;;;;;4.80;3.50;;;;;;;13.08;55.56;101194.53;5059848;28;20211;-48
2021/06/01 05:30:41;;;;;;;5.90;3.25;;;;;;;13.44;55.06;101200.41;5049931;28;20132;-48
2021/06/01 05:33:22;;;;;;;5.20;3.10;;;;;;;13.27;56.13;101193.50;5062797;28;20316;-50
2021/06/01 05:35:52;;;;;;;4.28;2.95;;;;;;;13.25;57.14;101200.53;5057708;28;20060;-48
2021/06/01 05:38:32;;;;;;;9.52;3.10;;;;;;;13.25;55.53;101203.16;5056031;28;20051;-48
2021/06/01 05:40:59;;;;;;;5.45;3.00;;;;;;;13.34;55.87;101198.72;5071270;28;20071;-48
2021/06/01 05:43:25;;;;;;;4.93;3.20;;;;;;;13.52;54.77;101193.34;5060996;28;20044;-52
2021/06/01 05:45:52;;;;;;;5.85;3.15;;;;;;;13.48;54.56;101190.78;5052735;28;20453;-50
2021/06/01 05:48:18;;;;;;;5.60;3.20;;;;;;;13.56;54.95;101192.44;5063949;28;20056;-49
2021/06/01 05:50:44;;;;;;;4.57;2.85;;;;;;;13.69;54.68;101202.84;5083113;28;20043;-50
2021/06/01 05:53:10;;;;;;;7.15;3.25;;;;;;;13.82;54.08;101196.59;5071653;28;20140;-48
2021/06/01 05:55:37;;;;;;;4.07;2.97;;;;;;;13.81;53.80;101193.97;5083359;28;20039;-50
2021/06/01 05:58:04;;;;;;;4.30;3.10;;;;;;;13.91;54.37;101190.38;5060021;28;20052;-49
2021/06/01 06:00:31;;;;;;;5.43;2.95;;;;;;;14.06;54.33;101195.44;5079290;28;20047;-49
2021/06/01 06:02:58;;;;;;;5.43;3.15;;;;;;;14.21;54.28;101186.53;5057299;28;20036;-49
2021/06/01 06:05:23;;;;;;;4.63;3.00;;;;;;;14.38;53.18;101193.34;5064336;28;20328;-52
2021/06/01 06:07:49;;;;;;;4.20;3.00;;;;;;;14.22;53.82;101192.66;5059772;28;20044;-49
2021/06/01 06:10:16;;;;;;;4.55;2.60;;;;;;;14.18;54.05;101191.84;5078747;28;20052;-48
2021/06/01 06:12:41;;;;;;;4.55;3.17;;;;;;;14.50;52.98;101190.56;5076289;28;20050;-51
2021/06/01 06:15:15;;;;;;;6.32;2.92;;;;;;;14.38;53.16;101194.22;5060964;28;20044;-51
2021/06/01 06:17:52;;;;;;;4.85;3.08;;;;;;;14.44;53.39;101196.78;5081778;27;20036;-49
2021/06/01 06:20:18;;;;;;;5.00;3.10;;;;;;;14.68;52.66;101199.16;5078892;28;20113;-49
2021/06/01 06:22:44;;;;;;;4.50;2.83;;;;;;;15.17;50.32;101190.53;5062051;28;20123;-48
2021/06/01 06:25:11;;;;;;;3.83;2.60;;;;;;;15.24;49.77;101196.59;5056869;28;20044;-48
2021/06/01 06:27:38;;;;;;;5.78;3.00;;;;;;;15.25;49.27;101201.81;5062493;28;20037;-51
2021/06/01 06:30:06;;;;;;;6.20;3.03;;;;;;;15.18;51.11;101200.19;5055540;28;20127;-49
2021/06/01 06:32:32;;;;;;;5.63;3.00;;;;;;;15.08;52.50;101203.88;5052325;28;20085;-48
2021/06/01 06:34:57;;;;;;;5.75;2.72;;;;;;;15.31;51.39;101188.59;5078990;28;20035;-49
2021/06/01 06:37:23;;;;;;;5.32;3.35;;;;;;;15.26;51.10;101190.41;5084213;28;20476;-49
2021/06/01 06:39:49;;;;;;;5.88;3.05;;;;;;;15.72;50.27;101186.13;5062304;28;20050;-48
2021/06/01 06:42:17;;;;;;;5.53;3.00;;;;;;;15.72;50.07;101183.50;5067751;28;20338;-48
2021/06/01 06:44:48;;;;;;;4.00;2.88;;;;;;;15.45;50.33;101183.09;5064838;28;20042;-49
2021/06/01 06:49:39;;;;;;;5.30;2.88;;;;;;;15.74;50.31;101183.47;5062632;28;20023;-48
2021/06/01 06:52:09;;;;;;;5.15;3.03;;;;;;;15.90;49.69;101192.00;5076934;28;20059;-48
2021/06/01 06:54:35;;;;;;;4.47;2.90;;;;;;;15.68;49.99;101188.84;5081696;28;20036;-49
2021/06/01 06:57:01;;;;;;;5.78;3.10;;;;;;;15.57;52.03;101181.97;5057921;28;20120;-51
2021/06/01 06:59:27;;;;;;;4.47;2.75;;;;;;;15.81;49.43;101179.84;5058355;28;20600;-49
2021/06/01 07:01:53;;;;;;;5.95;3.05;;;;;;;15.87;50.33;101176.22;5059930;28;20036;-48
2021/06/01 07:04:18;;;;;;;6.40;3.10;;;;;;;15.89;49.83;101177.94;5076802;28;20043;-49
2021/06/01 07:06:47;;;;;;;3.95;2.80;;;;;;;15.94;50.11;101176.09;5065030;28;20076;-49
2021/06/01 07:09:13;;;;;;;5.13;3.10;;;;;;;15.99;49.89;101171.59;5052628;28;20044;-50
2021/06/01 07:11:40;;;;;;;4.43;3.03;;;;;;;16.19;50.12;101172.97;5061541;28;20130;-49
2021/06/01 07:14:08;;;;;;;6.15;3.00;;;;;;;16.47;48.06;101172.41;5077169;28;20158;-51
2021/06/01 07:16:34;;;;;;;5.25;2.58;;;;;;;16.27;47.90;101173.69;5054822;28;21887;-49
2021/06/01 07:18:59;;;;;;;4.68;2.90;;;;;;;16.66;46.65;101173.75;5078321;28;20140;-50
2021/06/01 07:21:25;;;;;;;5.25;3.22;;;;;;;16.39;46.93;101171.69;5079943;28;20040;-53
2021/06/01 07:23:51;;;;;;;5.07;3.92;;;;;;;16.71;46.64;101175.41;5077671;28;20420;-48
2021/06/01 07:26:16;;;;;;;4.35;2.85;;;;;;;16.75;47.14;101171.81;5071846;28;20047;-49
2021/06/01 07:28:42;;;;;;;4.93;2.90;;;;;;;17.18;44.59;101168.19;5078772;28;20040;-49
2021/06/01 07:31:14;;;;;;;3.78;2.45;;;;;;;17.27;45.56;101165.34;5060385;28;20037;-49
2021/06/01 07:33:39;;;;;;;5.10;2.70;;;;;;;17.67;43.26;101166.97;5058172;28;20043;-48
2021/06/01 07:36:05;;;;;;;3.90;2.67;;;;;;;17.43;44.89;101164.94;5066803;28;20056;-51
2021/06/01 07:38:31;;;;;;;4.10;2.90;;;;;;;17.20;45.89;101166.41;5051214;28;20246;-49
2021/06/01 07:40:59;;;;;;;5.60;3.13;;;;;;;17.55;44.36;101175.19;5057653;28;20031;-49
2021/06/01 07:43:25;;;;;;;4.72;2.88;;;;;;;17.81;44.31;101168.38;5029540;28;20477;-48
2021/06/01 07:45:50;;;;;;;4.53;2.78;;;;;;;17.61;43.97;101174.19;5073360;28;20040;-50
2021/06/01 07:48:16;;;;;;;3.90;2.67;;;;;;;17.71;44.48;101170.41;5060641;28;20043;-49
2021/06/01 07:50:42;;;;;;;4.72;2.85;;;;;;;17.95;43.56;101166.25;5059059;28;20040;-50
2021/06/01 07:53:07;;;;;;;5.82;3.00;;;;;;;18.41;41.76;101172.00;5076626;28;20113;-50
2021/06/01 07:55:33;;;;;;;4.97;2.97;;;;;;;18.01;44.54;101166.09;5079707;28;20042;-48
2021/06/01 07:58:01;;;;;;;4.25;2.75;;;;;;;18.09;43.91;101162.34;5058111;28;20040;-48
2021/06/01 08:00:27;;;;;;;5.20;3.00;;;;;;;17.94;44.66;101158.34;5075256;28;20116;-50
2021/06/01 08:02:53;;;;;;;4.35;2.92;;;;;;;18.36;41.68;101158.06;5075755;28;20101;-52
2021/06/01 08:05:20;;;;;;;4.20;2.95;;;;;;;18.12;42.73;101154.31;5074128;28;20028;-50
2021/06/01 08:07:47;;;;;;;3.67;2.88;;;;;;;18.10;43.07;101148.22;5060462;28;20067;-50
2021/06/01 08:10:18;;;;;;;4.43;2.70;;;;;;;18.44;42.36;101155.16;5074779;28;20062;-49
2021/06/01 08:12:47;;;;;;;3.80;2.50;;;;;;;18.31;42.05;101152.03;5076470;28;20071;-50
2021/06/01 08:15:15;;;;;;;4.38;2.80;;;;;;;18.19;42.70;101143.53;5074209;28;20055;-49
2021/06/01 08:17:41;;;;;;;4.95;2.83;;;;;;;18.18;42.72;101139.16;5058380;28;20059;-49
2021/06/01 08:20:14;;;;;;;4.13;2.70;;;;;;;18.36;42.30;101140.38;5041866;28;20040;-52
2021/06/01 08:22:41;;;;;;;4.25;2.88;;;;;;;18.82;38.95;101139.91;5057376;28;20566;-49
2021/06/01 08:25:09;;;;;;;5.47;3.28;;;;;;;18.76;39.97;101126.84;5070478;28;20133;-49
2021/06/01 08:27:35;;;;;;;4.55;2.92;;;;;;;19.21;39.94;101129.81;5071422;28;20048;-49
2021/06/01 08:30:05;;;;;;;4.38;2.58;;;;;;;19.44;37.41;101129.94;5077913;28;20123;-50
2021/06/01 08:32:31;;;;;;;4.55;2.85;;;;;;;19.47;37.85;101127.19;5074607;28;20043;-48
2021/06/01 08:34:59;;;;;;;4.50;2.85;;;;;;;19.32;39.86;101125.94;5050265;28;20438;-49
2021/06/01 08:37:24;;;;;;;3.78;2.75;;;;;;;19.42;39.01;101119.38;5074751;28;20036;-53
2021/06/01 08:39:50;;;;;;;4.40;2.78;;;;;;;19.82;38.41;101123.31;5076545;28;20042;-50
2021/06/01 08:42:16;;;;;;;8.23;3.28;;;;;;;19.34;39.85;101124.97;5077820;28;20125;-49
2021/06/01 08:44:42;;;;;;;3.38;2.30;;;;;;;19.82;34.02;101115.34;5076331;28;20067;-50
2021/06/01 08:47:09;;;;;;;5.25;2.45;;;;;;;19.69;34.50;101119.38;5078846;28;20044;-52
2021/06/01 08:49:36;;;;;;;4.05;2.30;;;;;;;20.14;35.25;101120.41;5057225;28;20521;-49
2021/06/01 08:52:02;;;;;;;3.70;2.33;;;;;;;20.41;33.12;101123.81;5078142;28;20466;-49
2021/06/01 08:54:30;;;;;;;4.70;2.53;;;;;;;20.35;33.16;101116.94;5070467;28;20053;-49
2021/06/01 08:56:57;;;;;;;4.05;2.70;;;;;;;20.46;35.23;101126.28;5069989;28;20055;-50
2021/06/01 08:59:22;;;;;;;6.18;2.60;;;;;;;20.36;32.11;101115.16;5077911;28;20416;-50
2021/06/01 09:01:48;;;;;;;5.60;2.65;;;;;;;20.70;31.29;101112.06;5081078;28;20495;-50
2021/06/01 09:04:14;;;;;;;4.78;2.75;;;;;;;20.16;34.75;101107.94;5064566;28;20037;-50
2021/06/01 09:06:47;;;;;;;4.78;2.78;;;;;;;20.53;32.94;101099.44;5041887;28;20463;-52
2021/06/01 09:15:07;;;;;;;4.43;2.30;;;;;;;20.70;33.74;101092.59;5051506;28;20053;-50
2021/06/01 09:22:44;;;;;;;4.63;2.53;;;;;;;21.02;32.28;101093.09;5081552;28;20368;-49
2021/06/01 09:27:58;;;;;;;;;;;;;;;21.51;31.92;101090.13;5065201;28;20085;-50
2021/06/01 09:30:34;;;;;;;6.80;2.88;;;;;;;21.11;35.27;101081.19;5056178;28;19959;-48
2021/06/01 09:33:01;;;;;;;4.32;2.50;;;;;;;20.99;35.94;101080.78;5065888;28;20040;-53
2021/06/01 09:35:42;;;;;;;3.67;2.30;;;;;;;21.18;31.97;101078.19;5061774;28;20496;-50
2021/06/01 09:38:08;;;;;;;4.00;2.67;;;;;;;21.54;31.62;101074.06;5077161;28;20532;-49
2021/06/01 09:40:34;;;;;;;3.65;2.65;;;;;;;21.79;31.63;101086.25;5081107;28;20028;-49
2021/06/01 09:42:59;;;;;;;4.68;2.50;;;;;;;21.87;30.21;101076.13;5061341;28;20417;-49
2021/06/01 09:45:25;;;;;;;4.63;2.55;;;;;;;21.73;31.51;101072.28;5070902;28;20158;-51
2021/06/01 09:47:53;;;;;;;4.45;2.80;;;;;;;21.67;33.03;101085.88;5074153;28;20038;-48
2021/06/01 09:52:56;;;;;;;4.40;2.90;;;;;;;20.91;32.15;101061.66;5082694;28;20032;-50
2021/06/01 09:55:27;;;;;;;4.30;2.70;;;;;;;21.52;31.57;101065.25;5078101;28;20703;-51
2021/06/01 09:57:55;;;;;;;3.50;2.50;;;;;;;21.50;32.72;101059.13;5077808;28;20054;-51
2021/06/01 10:00:25;;;;;;;4.45;2.45;;;;;;;21.77;31.84;101060.56;5040523;28;20824;-49
2021/06/01 10:03:02;;;;;;;4.65;2.90;;;;;;;21.65;34.29;101060.28;5076232;28;20050;-51
2021/06/01 10:05:32;;;;;;;4.68;2.95;;;;;;;21.79;33.99;101055.19;5074166;28;20043;-49
2021/06/01 10:07:59;;;;;;;4.75;2.90;;;;;;;22.10;34.84;101057.28;5081473;28;20459;-49
2021/06/01 10:10:31;;;;;;;3.92;2.70;;;;;;;21.97;32.56;101047.28;5052348;28;20068;-50
2021/06/01 10:13:05;;;;;;;4.40;2.65;;;;;;;21.98;31.62;101052.53;5054640;28;20425;-49
2021/06/01 10:15:32;;;;;;;3.53;2.42;;;;;;;22.33;29.39;101050.00;5067960;28;20032;-52
2021/06/01 10:17:58;;;;;;;7.10;2.97;;;;;;;22.27;28.29;101040.50;5076137;28;20043;-49
2021/06/01 10:20:27;;;;;;;4.28;2.45;;;;;;;22.10;30.57;101037.81;5077635;28;20031;-50
2021/06/01 10:22:53;;;;;;;4.07;2.53;;;;;;;22.19;31.10;101028.50;5058982;28;20090;-52
2021/06/01 10:25:19;;;;;;;3.30;2.17;;;;;;;22.52;27.68;101036.69;5076961;28;20050;-50
2021/06/01 10:27:46;;;;;;;4.70;2.30;;;;;;;22.67;31.36;101023.56;5058885;27;20596;-51
2021/06/01 10:30:14;;;;;;;3.58;2.47;;;;;;;22.77;27.18;101020.34;5070449;28;20395;-52
2021/06/01 10:32:48;;;;;;;4.03;2.63;;;;;;;22.54;29.00;101017.97;5054286;28;20043;-50
2021/06/01 10:35:18;;;;;;;5.50;2.60;;;;;;;22.74;26.97;101019.66;5059161;28;20251;-49
2021/06/01 10:52:13;;;;;;;3.88;2.60;;;;;;;23.25;29.01;101019.78;5077359;28;20035;-52
2021/06/01 10:54:38;;;;;;;4.25;2.63;;;;;;;23.39;28.54;101022.56;5072965;28;20052;-49
2021/06/01 10:57:04;;;;;;;3.55;2.60;;;;;;;23.16;31.30;101012.25;5080833;28;20340;-49
2021/06/01 10:59:51;;;;;;;4.82;2.58;;;;;;;23.37;26.74;101005.78;5074203;28;20396;-49
2021/06/01 11:02:18;;;;;;;4.43;2.60;;;;;;;23.09;29.07;100993.84;5060397;28;20043;-50
2021/06/01 11:05:06;;;;;;;3.75;2.78;;;;;;;23.34;29.62;100991.75;5076509;28;20140;-53
2021/06/01 11:07:50;;;;;;;;;;;;;;;23.08;30.26;100997.47;5073247;28;20213;-51
2021/06/01 11:10:45;;;;;;;4.00;2.40;;;;;;;23.00;28.49;100990.78;5044981;28;19980;-50
2021/06/01 11:13:31;;;;;;;4.15;2.78;;;;;;;23.38;28.12;100980.81;5075251;28;20040;-50
2021/06/01 11:15:59;;;;;;;3.90;2.50;;;;;;;23.45;29.91;100978.69;5059182;28;20123;-51
2021/06/01 11:18:42;;;;;;;4.88;2.67;;;;;;;23.86;26.60;100980.03;5054064;28;20033;-51
2021/06/01 11:35:45;;;;;;;4.13;2.35;;;;;;;23.77;25.59;100962.72;5055333;28;20130;-50
2021/06/01 11:38:17;;;;;;;3.92;2.45;;;;;;;23.74;29.17;100961.06;5074626;28;20660;-49
2021/06/01 11:40:58;;;;;;;4.38;2.65;;;;;;;24.03;28.12;100966.63;5060152;28;20036;-49
2021/06/01 11:43:24;;;;;;;6.68;3.10;;;;;;;23.52;29.05;100963.22;5041282;28;20036;-50
2021/06/01 11:53:49;;;;;;;4.45;2.80;;;;;;;24.40;25.00;100945.81;5072160;28;20044;-49
2021/06/01 11:56:19;;;;;;;4.85;2.80;;;;;;;24.25;26.50;100934.22;5074797;28;20047;-51
2021/06/01 12:18:45;;;;;;;3.80;2.50;;;;;;;24.69;26.66;100913.88;5077781;28;20043;-48
2021/06/01 12:21:13;;;;;;;8.13;3.88;;;;;;;24.89;25.56;100909.97;5064086;28;20044;-53
2021/06/01 12:23:46;;;;;;;4.97;2.90;;;;;;;24.62;25.97;100907.19;5079607;28;20044;-50
2021/06/01 12:32:26;;;;;;;4.63;2.45;;;;;;;24.73;24.61;100894.00;5060191;28;20181;-50
2021/06/01 12:43:00;;;;;;;5.72;2.70;;;;;;;24.65;26.34;100882.94;5075833;28;20280;-52
2021/06/01 13:19:26;;;;;;;4.05;2.50;;;;;;;25.26;23.90;100839.97;5040541;28;20048;-48
2021/06/01 13:22:06;;;;;;;3.35;2.50;;;;;;;25.43;24.05;100839.75;5063915;28;20043;-49
2021/06/01 13:30:57;;;;;;;3.63;2.60;;;;;;;25.57;22.68;100830.81;5050048;28;20391;-49
2021/06/01 13:38:55;;;;;;;4.65;2.42;;;;;;;25.43;24.46;100818.34;5059323;28;20044;-52
2021/06/01 13:47:06;;;;;;;3.47;2.35;;;;;;;25.97;21.98;100812.09;5078753;28;20577;-49
2021/06/01 13:49:39;;;;;;;4.82;2.50;;;;;;;25.99;21.23;100809.34;5059160;28;20521;-51
2021/06/01 14:00:28;;;;;;;3.97;2.47;;;;;;;26.26;21.88;100805.78;5062445;28;20128;-48
2021/06/01 14:22:23;;;;;;;3.85;2.38;;;;;;;25.94;22.21;100772.16;5018168;28;20056;-49
2021/06/01 15:11:26;;;;;;;4.20;2.50;;;;;;;26.07;22.59;100748.13;5071328;28;20359;-50